Emerald Princess — ZCDP8 — position and weather

sailwx.info

Track history (hours):
 
Tides and Currents Weather Stations Pressure Air Temp Water Temp Dewpoint Dewpoint Depression Visibility Wind Speed Wind Dir Waves Ship Positions

Emerald Princess

Last reported at 2018-Jul-22 16:30 UTC. Time now 2018-Jul-22 16:28 UTC.
Position N 47°38' W 122°23'.

Type: Ship. MMSI: 310531000.

Date/timePositionNaut miles runAvg speedWind from/ knotsBaromVisibWave heightAir tempDewpointWater temp
2018-Jul-22 16:30N 47°38' W 122°23'0 0.0
2018-Jul-22 15:59N 47°38' W 122°23'0 0.0
2018-Jul-22 14:59N 47°38' W 122°23'0 0.0
2018-Jul-22 14:29N 47°38' W 122°23'0 0.0
2018-Jul-22 13:59N 47°38' W 122°23'0 0.0
2018-Jul-22 13:28N 47°38' W 122°23'0 0.0
2018-Jul-22 12:58N 47°38' W 122°23'0 0.5
2018-Jul-22 12:30N 47°38' W 122°23'3 6.9
2018-Jul-22 12:00N 47°39' W 122°27'713.5
2018-Jul-22 11:30N 47°46' W 122°27'917.4
2018-Jul-22 11:00N 47°55' W 122°30'816.1
2018-Jul-22 10:30N 48°01' W 122°38'815.8
2018-Jul-22 10:00N 48°08' W 122°43'916.2
2018-Jul-22 09:29N 48°11' W 122°55'917.6
2018-Jul-22 08:57N 48°12' W 123°08'817.3
2018-Jul-22 08:29N 48°11' W 123°21'12 9.7
2018-Jul-22 07:14N 48°22' W 123°25'3 0.4
2018-Jul-22 00:49N 48°25' W 123°24'1 4.3
2018-Jul-22 00:30N 48°24' W 123°25'5 9.6
2018-Jul-21 23:59N 48°19' W 123°25'1113.0
2018-Jul-21 23:07N 48°14' W 123°40'316.5
2018-Jul-21 22:56N 48°14' W 123°45'716.0
2018-Jul-21 22:29N 48°14' W 123°56'815.5
2018-Jul-21 21:59N 48°17' W 124°06'815.8
2018-Jul-21 21:30N 48°21' W 124°17'714.9
2018-Jul-21 21:00N 48°24' W 124°27'612.5
2018-Jul-21 20:30N 48°26' W 124°35'713.7
2018-Jul-21 20:00N 48°29' W 124°45'815.4
2018-Jul-21 19:30N 48°29' W 124°57'816.4
2018-Jul-21 19:00N 48°29' W 125°09'816.3
2018-Jul-21 18:29N 48°33' W 125°20'816.5
2018-Jul-21 18:00N 48°37' W 125°30'816.6
2018-Jul-21 17:30N 48°41' W 125°41'816.2
2018-Jul-21 17:00N 48°45' W 125°52'816.2
2018-Jul-21 16:30N 48°50' W 126°02'816.3
2018-Jul-21 16:00N 48°54' W 126°13'816.7
2018-Jul-21 15:30N 48°58' W 126°24'816.9
2018-Jul-21 15:00N 49°02' W 126°35'917.2
2018-Jul-21 14:30N 49°07' W 126°46'1717.2
2018-Jul-21 13:30N 49°18' W 127°06'1016.8
2018-Jul-21 12:54N 49°25' W 127°18'1020.0
2018-Jul-21 12:22N 49°32' W 127°30'7320.2
2018-Jul-21 08:45N 50°21' W 128°55'519.6
2018-Jul-21 08:30N 50°24' W 129°00'1220.0
2018-Jul-21 07:53N 50°32' W 129°15'819.8
2018-Jul-21 07:30N 50°37' W 129°24'1019.7
2018-Jul-21 07:00N 50°44' W 129°35'1819.5
2018-Jul-21 06:04N 50°56' W 129°56'919.9
2018-Jul-21 05:35N 51°03' W 130°07'220.3
2018-Jul-21 05:30N 51°04' W 130°09'  
2018-Jul-17 09:00N 54°41' W 131°32'1218.1
2018-Jul-17 08:20N 54°31' W 131°20'617.3
2018-Jul-17 08:00N 54°27' W 131°14'917.5
2018-Jul-17 07:30N 54°20' W 131°04'917.3
2018-Jul-17 07:00N 54°11' W 131°03'917.2
2018-Jul-17 06:30N 54°03' W 131°03'917.0
2018-Jul-17 06:00N 53°54' W 131°04'917.5
2018-Jul-17 05:30N 53°46' W 131°05'917.6
2018-Jul-17 05:00N 53°37' W 131°04'817.0
2018-Jul-17 04:30N 53°28' W 131°03'917.4
2018-Jul-17 04:00N 53°20' W 130°59'6618.2
2018-Jul-17 00:23N 52°18' W 130°22'1719.6
2018-Jul-16 23:30N 52°02' W 130°12'1019.2
2018-Jul-16 23:00N 51°53' W 130°07'1019.2
2018-Jul-16 22:30N 51°44' W 130°02'1019.1
2018-Jul-16 22:00N 51°35' W 129°56'919.1
2018-Jul-16 21:30N 51°26' W 129°51'918.4
2018-Jul-16 21:00N 51°17' W 129°46'918.4
2018-Jul-16 20:30N 51°09' W 129°41'918.4
2018-Jul-16 20:00N 50°60' W 129°37'1019.7
2018-Jul-16 19:29N 50°50' W 129°31'1019.8
2018-Jul-16 19:00N 50°41' W 129°26'1018.6
2018-Jul-16 18:29N 50°34' W 129°17'918.9
2018-Jul-16 18:00N 50°28' W 129°06'918.9
2018-Jul-16 17:30N 50°21' W 128°55'918.7
2018-Jul-16 17:00N 50°15' W 128°44'918.3
2018-Jul-16 16:30N 50°09' W 128°34'918.1
2018-Jul-16 16:00N 50°03' W 128°23'918.2
2018-Jul-16 15:30N 49°57' W 128°13'917.7
2018-Jul-16 15:00N 49°51' W 128°03'917.4
2018-Jul-16 14:31N 49°45' W 127°53'917.2
2018-Jul-16 14:00N 49°39' W 127°43'917.8
2018-Jul-16 13:30N 49°33' W 127°33'918.1
2018-Jul-16 13:00N 49°27' W 127°22'918.0
2018-Jul-16 12:30N 49°21' W 127°12'918.7
2018-Jul-16 12:00N 49°15' W 127°01'1019.2
2018-Jul-16 11:30N 49°08' W 126°50'1019.6
2018-Jul-16 11:00N 49°03' W 126°38'1019.9
2018-Jul-16 10:31N 48°58' W 126°25'1020.1
2018-Jul-16 10:01N 48°53' W 126°12'5261.3
2018-Jul-16 10:00N 48°48' W 126°12'918.8 310 / 221016.010.8 14.012.214.0
2018-Jul-16 09:30N 48°48' W 125°58'1020.6
2018-Jul-16 09:01N 48°42' W 125°45'1020.7
2018-Jul-16 08:31N 48°37' W 125°32'1121.5
2018-Jul-16 08:00N 48°31' W 125°18'1121.5
2018-Jul-16 07:31N 48°31' W 125°01'1121.7
2018-Jul-16 07:00N 48°31' W 124°45'1121.8
2018-Jul-16 06:31N 48°27' W 124°30'1121.8
2018-Jul-16 06:00N 48°23' W 124°14'1121.9
2018-Jul-16 05:30N 48°18' W 123°59'1122.0
2018-Jul-16 05:01N 48°16' W 123°43'1121.1
2018-Jul-16 04:30N 48°14' W 123°28'612.5
2018-Jul-16 04:00N 48°08' W 123°24'1 0.9
2018-Jul-16 03:12N 48°08' W 123°23'210.6
2018-Jul-16 02:59N 48°09' W 123°20'919.0
2018-Jul-16 02:30N 48°13' W 123°07'1020.0
2018-Jul-16 01:59N 48°12' W 122°51'1016.6
2018-Jul-16 01:24N 48°07' W 122°39'717.1
2018-Jul-16 00:59N 47°60' W 122°36'817.8
2018-Jul-16 00:31N 47°53' W 122°28'1019.7
2018-Jul-16 00:01N 47°43' W 122°27'713.1
2018-Jul-15 23:30N 47°37' W 122°24'1 1.7
2018-Jul-15 23:00N 47°38' W 122°23'0 0.0
2018-Jul-15 22:11N 47°38' W 122°23'0 0.0
2018-Jul-15 21:59N 47°38' W 122°23'0 0.0
2018-Jul-15 21:29N 47°38' W 122°23'0 0.0
2018-Jul-15 20:41N 47°38' W 122°23'0 0.0
2018-Jul-15 20:20N 47°38' W 122°23'0 0.0
2018-Jul-15 19:58N 47°38' W 122°23'0 0.0
2018-Jul-15 19:28N 47°38' W 122°23'0 0.0
2018-Jul-15 18:58N 47°38' W 122°23'0 0.0
2018-Jul-15 18:28N 47°38' W 122°23'0 0.0
2018-Jul-15 17:58N 47°38' W 122°23'0 0.0
2018-Jul-15 17:30N 47°38' W 122°23'0 0.0
2018-Jul-15 17:00N 47°38' W 122°23'0 0.0
2018-Jul-15 16:30N 47°38' W 122°23'0 0.0
2018-Jul-15 16:00N 47°38' W 122°23'0 0.0
2018-Jul-15 15:29N 47°38' W 122°23'0 0.0
2018-Jul-15 14:59N 47°38' W 122°23'0 0.0
2018-Jul-15 14:23N 47°38' W 122°23'0 0.0
2018-Jul-15 13:59N 47°38' W 122°23'0 0.0
2018-Jul-15 13:29N 47°38' W 122°23'0 0.0
2018-Jul-15 12:58N 47°38' W 122°23'1 1.2
2018-Jul-15 12:30N 47°37' W 122°23'5 9.1
2018-Jul-15 12:01N 47°40' W 122°28'816.6
2018-Jul-15 11:31N 47°48' W 122°27'817.0
2018-Jul-15 11:01N 47°56' W 122°32'917.8
2018-Jul-15 10:31N 48°04' W 122°39'917.5
2018-Jul-15 10:01N 48°11' W 122°47'1019.0
2018-Jul-15 09:30N 48°12' W 123°01'918.1
2018-Jul-15 09:00N 48°12' W 123°15'914.0
2018-Jul-15 08:23N 48°12' W 123°28'614.5
2018-Jul-15 07:57N 48°18' W 123°28'612.4
2018-Jul-15 07:27N 48°23' W 123°24'1 0.2
2018-Jul-15 00:47N 48°25' W 123°24'2 7.4
2018-Jul-15 00:30N 48°23' W 123°24'713.2
2018-Jul-14 23:58N 48°16' W 123°26'1113.7
2018-Jul-14 23:09N 48°14' W 123°43'314.5
2018-Jul-14 22:57N 48°14' W 123°47'816.6
2018-Jul-14 22:30N 48°15' W 123°58'917.6
2018-Jul-14 22:00N 48°18' W 124°10'613.0
2018-Jul-14 21:30N 48°21' W 124°19'918.4
2018-Jul-14 21:00N 48°25' W 124°32'918.2
2018-Jul-14 20:30N 48°29' W 124°44'1018.2
2018-Jul-14 19:59N 48°29' W 124°58'918.2
2018-Jul-14 19:30N 48°29' W 125°11'917.3
2018-Jul-14 19:00N 48°34' W 125°23'917.6
2018-Jul-14 18:30N 48°38' W 125°34'918.3
2018-Jul-14 18:00N 48°43' W 125°46'917.8
2018-Jul-14 17:30N 48°48' W 125°57'918.2
2018-Jul-14 17:00N 48°52' W 126°09'918.3
2018-Jul-14 16:30N 48°57' W 126°21'918.6
2018-Jul-14 16:00N 49°02' W 126°33'918.9
2018-Jul-14 15:30N 49°07' W 126°46'1019.7
2018-Jul-14 15:00N 49°13' W 126°58'1019.9
2018-Jul-14 14:30N 49°19' W 127°09'4719.8
2018-Jul-14 12:07N 49°51' W 128°03'319.8
2018-Jul-14 11:58N 49°53' W 128°06'1119.5
2018-Jul-14 11:24N 50°00' W 128°19'819.3
2018-Jul-14 11:00N 50°05' W 128°28'919.0
2018-Jul-14 10:30N 50°12' W 128°39'1019.0
2018-Jul-14 09:59N 50°18' W 128°51'919.0
2018-Jul-14 09:30N 50°24' W 129°01'919.0
2018-Jul-14 09:00N 50°31' W 129°12'918.8
2018-Jul-14 08:30N 50°37' W 129°24'918.9
2018-Jul-14 08:00N 50°43' W 129°34'918.9
2018-Jul-14 07:30N 50°50' W 129°45'1018.5
2018-Jul-14 06:57N 50°57' W 129°57'818.6
2018-Jul-14 06:30N 51°03' W 130°06'918.5
2018-Jul-14 06:01N 51°09' W 130°17'918.9
2018-Jul-14 05:30N 51°16' W 130°28'  
Track history (hours):
 
Tides and Currents Weather Stations Pressure Air Temp Water Temp Dewpoint Dewpoint Depression Visibility Wind Speed Wind Dir Waves Ship Positions

Emerald Princess

Last reported at 2018-Jul-22 16:30 UTC. Time now 2018-Jul-22 16:28 UTC.
Position N 47°38' W 122°23'.

Type: Ship. MMSI: 310531000.

Date/timePositionNaut miles runAvg speedWind from/ knotsBaromVisibWave heightAir tempDewpointWater temp
2018-Jul-22 16:30N 47°38' W 122°23'0 0.0
2018-Jul-22 15:59N 47°38' W 122°23'0 0.0
2018-Jul-22 14:59N 47°38' W 122°23'0 0.0
2018-Jul-22 14:29N 47°38' W 122°23'0 0.0
2018-Jul-22 13:59N 47°38' W 122°23'0 0.0
2018-Jul-22 13:28N 47°38' W 122°23'0 0.0
2018-Jul-22 12:58N 47°38' W 122°23'0 0.5
2018-Jul-22 12:30N 47°38' W 122°23'3 6.9
2018-Jul-22 12:00N 47°39' W 122°27'713.5
2018-Jul-22 11:30N 47°46' W 122°27'917.4
2018-Jul-22 11:00N 47°55' W 122°30'816.1
2018-Jul-22 10:30N 48°01' W 122°38'815.8
2018-Jul-22 10:00N 48°08' W 122°43'916.2
2018-Jul-22 09:29N 48°11' W 122°55'917.6
2018-Jul-22 08:57N 48°12' W 123°08'817.3
2018-Jul-22 08:29N 48°11' W 123°21'12 9.7
2018-Jul-22 07:14N 48°22' W 123°25'3 0.4
2018-Jul-22 00:49N 48°25' W 123°24'1 4.3
2018-Jul-22 00:30N 48°24' W 123°25'5 9.6
2018-Jul-21 23:59N 48°19' W 123°25'1113.0
2018-Jul-21 23:07N 48°14' W 123°40'316.5
2018-Jul-21 22:56N 48°14' W 123°45'716.0
2018-Jul-21 22:29N 48°14' W 123°56'815.5
2018-Jul-21 21:59N 48°17' W 124°06'815.8
2018-Jul-21 21:30N 48°21' W 124°17'714.9
2018-Jul-21 21:00N 48°24' W 124°27'612.5
2018-Jul-21 20:30N 48°26' W 124°35'713.7
2018-Jul-21 20:00N 48°29' W 124°45'815.4
2018-Jul-21 19:30N 48°29' W 124°57'816.4
2018-Jul-21 19:00N 48°29' W 125°09'816.3
2018-Jul-21 18:29N 48°33' W 125°20'816.5
2018-Jul-21 18:00N 48°37' W 125°30'816.6
2018-Jul-21 17:30N 48°41' W 125°41'816.2
2018-Jul-21 17:00N 48°45' W 125°52'816.2
2018-Jul-21 16:30N 48°50' W 126°02'816.3
2018-Jul-21 16:00N 48°54' W 126°13'816.7
2018-Jul-21 15:30N 48°58' W 126°24'816.9
2018-Jul-21 15:00N 49°02' W 126°35'917.2
2018-Jul-21 14:30N 49°07' W 126°46'1717.2
2018-Jul-21 13:30N 49°18' W 127°06'1016.8
2018-Jul-21 12:54N 49°25' W 127°18'1020.0
2018-Jul-21 12:22N 49°32' W 127°30'7320.2
2018-Jul-21 08:45N 50°21' W 128°55'519.6
2018-Jul-21 08:30N 50°24' W 129°00'1220.0
2018-Jul-21 07:53N 50°32' W 129°15'819.8
2018-Jul-21 07:30N 50°37' W 129°24'1019.7
2018-Jul-21 07:00N 50°44' W 129°35'1819.5
2018-Jul-21 06:04N 50°56' W 129°56'919.9
2018-Jul-21 05:35N 51°03' W 130°07'220.3
2018-Jul-21 05:30N 51°04' W 130°09'  
2018-Jul-17 09:00N 54°41' W 131°32'1218.1
2018-Jul-17 08:20N 54°31' W 131°20'617.3
2018-Jul-17 08:00N 54°27' W 131°14'917.5
2018-Jul-17 07:30N 54°20' W 131°04'917.3
2018-Jul-17 07:00N 54°11' W 131°03'917.2
2018-Jul-17 06:30N 54°03' W 131°03'917.0
2018-Jul-17 06:00N 53°54' W 131°04'917.5
2018-Jul-17 05:30N 53°46' W 131°05'917.6
2018-Jul-17 05:00N 53°37' W 131°04'817.0
2018-Jul-17 04:30N 53°28' W 131°03'917.4
2018-Jul-17 04:00N 53°20' W 130°59'6618.2
2018-Jul-17 00:23N 52°18' W 130°22'1719.6
2018-Jul-16 23:30N 52°02' W 130°12'1019.2
2018-Jul-16 23:00N 51°53' W 130°07'1019.2
2018-Jul-16 22:30N 51°44' W 130°02'1019.1
2018-Jul-16 22:00N 51°35' W 129°56'919.1
2018-Jul-16 21:30N 51°26' W 129°51'918.4
2018-Jul-16 21:00N 51°17' W 129°46'918.4
2018-Jul-16 20:30N 51°09' W 129°41'918.4
2018-Jul-16 20:00N 50°60' W 129°37'1019.7
2018-Jul-16 19:29N 50°50' W 129°31'1019.8
2018-Jul-16 19:00N 50°41' W 129°26'1018.6
2018-Jul-16 18:29N 50°34' W 129°17'918.9
2018-Jul-16 18:00N 50°28' W 129°06'918.9
2018-Jul-16 17:30N 50°21' W 128°55'918.7
2018-Jul-16 17:00N 50°15' W 128°44'918.3
2018-Jul-16 16:30N 50°09' W 128°34'918.1
2018-Jul-16 16:00N 50°03' W 128°23'918.2
2018-Jul-16 15:30N 49°57' W 128°13'917.7
2018-Jul-16 15:00N 49°51' W 128°03'917.4
2018-Jul-16 14:31N 49°45' W 127°53'917.2
2018-Jul-16 14:00N 49°39' W 127°43'917.8
2018-Jul-16 13:30N 49°33' W 127°33'918.1
2018-Jul-16 13:00N 49°27' W 127°22'918.0
2018-Jul-16 12:30N 49°21' W 127°12'918.7
2018-Jul-16 12:00N 49°15' W 127°01'1019.2
2018-Jul-16 11:30N 49°08' W 126°50'1019.6
2018-Jul-16 11:00N 49°03' W 126°38'1019.9
2018-Jul-16 10:31N 48°58' W 126°25'1020.1
2018-Jul-16 10:01N 48°53' W 126°12'5261.3
2018-Jul-16 10:00N 48°48' W 126°12'918.8 310 / 221016.010.8 14.012.214.0
2018-Jul-16 09:30N 48°48' W 125°58'1020.6
2018-Jul-16 09:01N 48°42' W 125°45'1020.7
2018-Jul-16 08:31N 48°37' W 125°32'1121.5
2018-Jul-16 08:00N 48°31' W 125°18'1121.5
2018-Jul-16 07:31N 48°31' W 125°01'1121.7
2018-Jul-16 07:00N 48°31' W 124°45'1121.8
2018-Jul-16 06:31N 48°27' W 124°30'1121.8
2018-Jul-16 06:00N 48°23' W 124°14'1121.9
2018-Jul-16 05:30N 48°18' W 123°59'1122.0
2018-Jul-16 05:01N 48°16' W 123°43'1121.1
2018-Jul-16 04:30N 48°14' W 123°28'612.5
2018-Jul-16 04:00N 48°08' W 123°24'1 0.9
2018-Jul-16 03:12N 48°08' W 123°23'210.6
2018-Jul-16 02:59N 48°09' W 123°20'919.0
2018-Jul-16 02:30N 48°13' W 123°07'1020.0
2018-Jul-16 01:59N 48°12' W 122°51'1016.6
2018-Jul-16 01:24N 48°07' W 122°39'717.1
2018-Jul-16 00:59N 47°60' W 122°36'817.8
2018-Jul-16 00:31N 47°53' W 122°28'1019.7
2018-Jul-16 00:01N 47°43' W 122°27'713.1
2018-Jul-15 23:30N 47°37' W 122°24'1 1.7
2018-Jul-15 23:00N 47°38' W 122°23'0 0.0
2018-Jul-15 22:11N 47°38' W 122°23'0 0.0
2018-Jul-15 21:59N 47°38' W 122°23'0 0.0
2018-Jul-15 21:29N 47°38' W 122°23'0 0.0
2018-Jul-15 20:41N 47°38' W 122°23'0 0.0
2018-Jul-15 20:20N 47°38' W 122°23'0 0.0
2018-Jul-15 19:58N 47°38' W 122°23'0 0.0
2018-Jul-15 19:28N 47°38' W 122°23'0 0.0
2018-Jul-15 18:58N 47°38' W 122°23'0 0.0
2018-Jul-15 18:28N 47°38' W 122°23'0 0.0
2018-Jul-15 17:58N 47°38' W 122°23'0 0.0
2018-Jul-15 17:30N 47°38' W 122°23'0 0.0
2018-Jul-15 17:00N 47°38' W 122°23'0 0.0
2018-Jul-15 16:30N 47°38' W 122°23'0 0.0
2018-Jul-15 16:00N 47°38' W 122°23'0 0.0
2018-Jul-15 15:29N 47°38' W 122°23'0 0.0
2018-Jul-15 14:59N 47°38' W 122°23'0 0.0
2018-Jul-15 14:23N 47°38' W 122°23'0 0.0
2018-Jul-15 13:59N 47°38' W 122°23'0 0.0
2018-Jul-15 13:29N 47°38' W 122°23'0 0.0
2018-Jul-15 12:58N 47°38' W 122°23'1 1.2
2018-Jul-15 12:30N 47°37' W 122°23'5 9.1
2018-Jul-15 12:01N 47°40' W 122°28'816.6
2018-Jul-15 11:31N 47°48' W 122°27'817.0
2018-Jul-15 11:01N 47°56' W 122°32'917.8
2018-Jul-15 10:31N 48°04' W 122°39'917.5
2018-Jul-15 10:01N 48°11' W 122°47'1019.0
2018-Jul-15 09:30N 48°12' W 123°01'918.1
2018-Jul-15 09:00N 48°12' W 123°15'914.0
2018-Jul-15 08:23N 48°12' W 123°28'614.5
2018-Jul-15 07:57N 48°18' W 123°28'612.4
2018-Jul-15 07:27N 48°23' W 123°24'1 0.2
2018-Jul-15 00:47N 48°25' W 123°24'2 7.4
2018-Jul-15 00:30N 48°23' W 123°24'713.2
2018-Jul-14 23:58N 48°16' W 123°26'1113.7
2018-Jul-14 23:09N 48°14' W 123°43'314.5
2018-Jul-14 22:57N 48°14' W 123°47'816.6
2018-Jul-14 22:30N 48°15' W 123°58'917.6
2018-Jul-14 22:00N 48°18' W 124°10'613.0
2018-Jul-14 21:30N 48°21' W 124°19'918.4
2018-Jul-14 21:00N 48°25' W 124°32'918.2
2018-Jul-14 20:30N 48°29' W 124°44'1018.2
2018-Jul-14 19:59N 48°29' W 124°58'918.2
2018-Jul-14 19:30N 48°29' W 125°11'917.3
2018-Jul-14 19:00N 48°34' W 125°23'917.6
2018-Jul-14 18:30N 48°38' W 125°34'918.3
2018-Jul-14 18:00N 48°43' W 125°46'917.8
2018-Jul-14 17:30N 48°48' W 125°57'918.2
2018-Jul-14 17:00N 48°52' W 126°09'918.3
2018-Jul-14 16:30N 48°57' W 126°21'918.6
2018-Jul-14 16:00N 49°02' W 126°33'918.9
2018-Jul-14 15:30N 49°07' W 126°46'1019.7
2018-Jul-14 15:00N 49°13' W 126°58'1019.9
2018-Jul-14 14:30N 49°19' W 127°09'4719.8
2018-Jul-14 12:07N 49°51' W 128°03'319.8
2018-Jul-14 11:58N 49°53' W 128°06'1119.5
2018-Jul-14 11:24N 50°00' W 128°19'819.3
2018-Jul-14 11:00N 50°05' W 128°28'919.0
2018-Jul-14 10:30N 50°12' W 128°39'1019.0
2018-Jul-14 09:59N 50°18' W 128°51'919.0
2018-Jul-14 09:30N 50°24' W 129°01'919.0
2018-Jul-14 09:00N 50°31' W 129°12'918.8
2018-Jul-14 08:30N 50°37' W 129°24'918.9
2018-Jul-14 08:00N 50°43' W 129°34'918.9
2018-Jul-14 07:30N 50°50' W 129°45'1018.5
2018-Jul-14 06:57N 50°57' W 129°57'818.6
2018-Jul-14 06:30N 51°03' W 130°06'918.5
2018-Jul-14 06:01N 51°09' W 130°17'918.9
2018-Jul-14 05:30N 51°16' W 130°28'  

Dump ship's entire track history